Aviation Digital Data Service (ADDS)

Output produced by METARs form (1636 UTC 22 July 2017)
found at http://www.aviationweather.gov/adds/metars/
 
KDCA 221458Z 2215/2312 VRB04KT P6SM BKN050 OVC210 
     FM221600 32005KT P6SM BKN050 
     FM221800 25006KT P6SM VCTS BKN040CB 
     FM230400 26004KT P6SM BKN070